KICR

Winner Regional Airport

Winner, South Dakota, USA
METAR KICR 151853Z AUTO 22012KT 10SM CLR 06/M02 A2976 RMK AO2 SLP093 T00561017
Observed Flight Rules
Dec-15 @ 18:53 UTC (42 minutes ago) Visual Flight Rules
Wind Visibility Clouds
220° at 12 knots 10 miles
  • Clear skies
Temperatures Readings
Current 6°C / 43°F
Dewpoint -2°C / 28°F
Humidity 57%
Altimeter 29.76" Hg
Pressure 1009.3 hPa
Elevation 621
METAR KICR 151853Z AUTO 22012KT 10SM CLR 06/M02 A2976 RMK AO2 SLP093 T00561017
Observed Flight Rules
Dec-15 @ 18:53 UTC
(42 minutes ago)
VFR
Wind Visibility
220° at 12 knots 10 miles
Clouds
  • Clear skies
Temperature Dewpoint
6°C / 43°F -2°C / 28°F
Humidity Altimeter Pressure
57% 29.76" Hg 1009.3 hPa